Time;durP1;ratioP1;P1;durP2;ratioP2;P2;SDS_P1;SDS_P2;PMS_P1;PMS_P2;Temp;Humidity;BMP_temperature;BMP_pressure;BME280_temperature;BME280_humidity;BME280_pressure;Samples;Min_cycle;Max_cycle;Signal;HPM_P1;HPM_P2
2021/06/19 00:01:40;;;;;;;8.10;6.93;;;19.50;99.90;;;;;;4953585;29;20027;-73
2021/06/19 00:04:05;;;;;;;7.32;6.63;;;19.50;99.90;;;;;;4953730;29;20023;-73
2021/06/19 00:06:31;;;;;;;9.38;7.43;;;19.50;99.90;;;;;;4935581;29;20070;-75
2021/06/19 00:08:57;;;;;;;7.60;6.80;;;19.40;99.90;;;;;;4953618;29;20034;-76
2021/06/19 00:11:22;;;;;;;10.65;7.90;;;19.40;99.90;;;;;;4954223;29;20045;-74
2021/06/19 00:13:48;;;;;;;8.80;7.90;;;19.40;99.90;;;;;;4953020;29;20468;-74
2021/06/19 00:16:13;;;;;;;8.77;7.88;;;19.40;99.90;;;;;;4936914;29;20090;-75
2021/06/19 00:18:39;;;;;;;12.55;7.85;;;19.30;99.90;;;;;;4953962;29;20077;-74
2021/06/19 00:21:05;;;;;;;8.88;7.88;;;19.30;99.90;;;;;;4952931;29;20034;-79
2021/06/19 00:23:31;;;;;;;10.63;8.40;;;19.40;99.90;;;;;;4953568;29;20027;-74
2021/06/19 00:25:56;;;;;;;8.93;8.02;;;19.30;99.90;;;;;;4953440;29;20027;-82
2021/06/19 00:28:23;;;;;;;11.38;8.90;;;19.30;99.90;;;;;;4953324;29;20032;-78
2021/06/19 00:30:49;;;;;;;10.18;8.20;;;19.30;99.90;;;;;;4953306;29;20028;-77
2021/06/19 00:33:15;;;;;;;9.35;8.30;;;19.20;99.90;;;;;;4953802;29;20037;-73
2021/06/19 00:35:40;;;;;;;10.50;8.93;;;19.20;99.90;;;;;;4953067;29;20027;-77
2021/06/19 00:38:06;;;;;;;9.93;8.77;;;19.20;99.90;;;;;;4936257;29;20491;-74
2021/06/19 00:40:32;;;;;;;10.63;8.70;;;19.10;99.90;;;;;;4936438;29;20027;-74
2021/06/19 00:42:59;;;;;;;10.02;8.38;;;19.20;99.90;;;;;;4935079;29;20031;-73
2021/06/19 00:45:27;;;;;;;10.48;8.90;;;19.10;99.90;;;;;;4953828;29;20024;-73
2021/06/19 00:47:53;;;;;;;11.23;7.82;;;19.10;99.90;;;;;;4953192;29;20033;-73
2021/06/19 00:50:20;;;;;;;8.50;7.70;;;19.10;99.90;;;;;;4953518;28;20105;-73
2021/06/19 00:52:46;;;;;;;11.75;8.40;;;19.10;99.90;;;;;;4954115;28;20046;-74
2021/06/19 00:55:13;;;;;;;9.32;7.97;;;19.10;99.90;;;;;;4972400;28;20031;-72
2021/06/19 00:57:39;;;;;;;9.55;8.13;;;19.00;99.90;;;;;;4972598;28;20027;-74
2021/06/19 01:00:07;;;;;;;9.60;7.55;;;19.00;99.90;;;;;;4970787;28;20034;-73
2021/06/19 01:02:33;;;;;;;11.20;8.18;;;19.00;99.90;;;;;;4971550;28;20471;-73
2021/06/19 01:04:58;;;;;;;9.18;7.60;;;19.00;99.90;;;;;;4971994;28;20114;-73
2021/06/19 01:07:24;;;;;;;9.40;6.85;;;19.00;99.90;;;;;;4972864;28;20015;-74
2021/06/19 01:09:49;;;;;;;7.63;6.20;;;19.00;99.90;;;;;;4953573;28;20391;-73
2021/06/19 01:12:24;;;;;;;8.30;6.32;;;19.00;99.90;;;;;;4955323;28;20372;-73
2021/06/19 01:14:50;;;;;;;8.80;6.45;;;19.00;99.90;;;;;;4971852;28;20023;-73
2021/06/19 01:17:17;;;;;;;9.23;5.75;;;19.00;99.90;;;;;;4955760;28;20023;-72
2021/06/19 01:19:43;;;;;;;5.90;4.97;;;19.00;99.90;;;;;;4976350;28;20027;-73
2021/06/19 01:22:10;;;;;;;4.90;4.40;;;19.00;99.90;;;;;;4976126;28;20514;-72
2021/06/19 01:24:35;;;;;;;5.22;4.20;;;19.00;99.90;;;;;;4957861;28;20133;-72
2021/06/19 01:27:01;;;;;;;4.45;3.65;;;19.00;99.90;;;;;;4958460;28;20067;-72
2021/06/19 01:29:26;;;;;;;3.25;2.95;;;19.00;99.90;;;;;;4958983;28;20113;-73
2021/06/19 01:31:52;;;;;;;4.35;2.78;;;19.00;99.90;;;;;;4974892;28;20050;-73
2021/06/19 01:34:18;;;;;;;3.15;2.60;;;19.00;99.90;;;;;;4958712;28;20019;-72
2021/06/19 01:36:44;;;;;;;4.97;2.70;;;19.00;99.90;;;;;;4975496;28;20042;-73
2021/06/19 01:39:09;;;;;;;4.65;2.42;;;19.00;99.90;;;;;;4975364;28;20471;-74
2021/06/19 01:41:35;;;;;;;10.10;2.92;;;19.00;99.90;;;;;;4975934;28;20419;-75
2021/06/19 01:44:05;;;;;;;3.10;2.45;;;19.00;99.90;;;;;;4958082;28;20090;-78
2021/06/19 01:46:32;;;;;;;3.70;2.90;;;19.00;99.90;;;;;;4975182;28;20023;-73
2021/06/19 01:48:58;;;;;;;4.85;2.85;;;19.00;99.90;;;;;;4958213;28;20474;-73
2021/06/19 01:51:24;;;;;;;2.67;2.40;;;19.00;99.90;;;;;;4957879;28;20069;-73
2021/06/19 01:53:52;;;;;;;2.95;2.67;;;19.00;99.90;;;;;;4975092;28;20063;-73
2021/06/19 01:56:18;;;;;;;3.95;2.65;;;19.00;99.90;;;;;;4958405;28;20027;-73
2021/06/19 01:58:44;;;;;;;4.10;2.65;;;19.00;99.90;;;;;;4974722;28;20482;-73
2021/06/19 02:01:12;;;;;;;3.60;2.42;;;19.00;99.90;;;;;;4958488;28;20049;-77
2021/06/19 02:03:38;;;;;;;4.15;2.63;;;19.00;99.90;;;;;;4957926;28;20029;-73
2021/06/19 02:06:05;;;;;;;2.58;2.38;;;19.10;99.90;;;;;;4974480;28;20031;-75
2021/06/19 02:08:32;;;;;;;4.50;3.42;;;19.10;99.90;;;;;;4958299;28;20113;-75
2021/06/19 02:10:58;;;;;;;3.30;3.00;;;19.10;99.90;;;;;;4975042;28;20423;-74
2021/06/19 02:13:25;;;;;;;6.82;2.67;;;19.10;99.90;;;;;;4974713;28;20031;-74
2021/06/19 02:15:51;;;;;;;3.00;2.72;;;19.10;99.90;;;;;;4974960;28;20038;-75
2021/06/19 02:18:17;;;;;;;5.63;2.72;;;19.20;99.90;;;;;;4975183;28;20029;-73
2021/06/19 02:20:43;;;;;;;5.13;3.38;;;19.20;99.90;;;;;;4974305;28;20114;-75
2021/06/19 02:23:10;;;;;;;3.40;2.70;;;19.20;99.90;;;;;;4957831;28;20468;-73
2021/06/19 02:25:36;;;;;;;4.03;2.88;;;19.10;99.90;;;;;;4974893;28;20051;-75
2021/06/19 02:28:05;;;;;;;4.88;3.00;;;19.20;99.90;;;;;;4974208;28;20030;-75
2021/06/19 02:30:35;;;;;;;3.83;3.00;;;19.10;99.90;;;;;;4974537;28;20092;-74
2021/06/19 02:33:02;;;;;;;6.20;3.03;;;19.20;99.90;;;;;;4957189;28;20431;-75
2021/06/19 02:35:29;;;;;;;3.33;3.03;;;19.20;99.90;;;;;;4974541;28;20031;-74
2021/06/19 02:37:55;;;;;;;4.40;3.00;;;19.10;99.90;;;;;;4974474;28;20111;-75
2021/06/19 02:40:21;;;;;;;3.88;3.08;;;19.10;99.90;;;;;;4957400;28;20118;-77
2021/06/19 02:42:47;;;;;;;3.50;3.13;;;19.10;99.90;;;;;;4956302;28;20117;-75
2021/06/19 02:45:13;;;;;;;3.75;3.28;;;19.10;99.90;;;;;;4974903;28;20513;-74
2021/06/19 02:47:41;;;;;;;3.20;2.90;;;19.10;99.90;;;;;;4956513;28;20033;-75
2021/06/19 02:50:08;;;;;;;4.57;3.17;;;19.10;99.90;;;;;;4974027;28;20038;-77
2021/06/19 02:52:37;;;;;;;4.68;3.58;;;19.10;99.90;;;;;;4974319;28;20038;-76
2021/06/19 02:55:04;;;;;;;3.28;2.97;;;19.10;99.90;;;;;;4956242;28;20027;-73
2021/06/19 02:57:29;;;;;;;4.72;3.67;;;19.20;99.90;;;;;;4974702;28;20475;-75
2021/06/19 02:59:55;;;;;;;3.90;3.45;;;19.30;99.90;;;;;;4973918;28;20070;-71
2021/06/19 03:02:20;;;;;;;3.65;3.35;;;19.50;99.90;;;;;;4956363;28;20027;-73
2021/06/19 03:04:46;;;;;;;3.45;3.15;;;19.60;99.90;;;;;;4956377;28;20034;-72
2021/06/19 03:07:11;;;;;;;3.75;2.97;;;19.70;99.90;;;;;;4974445;28;20027;-72
2021/06/19 03:09:37;;;;;;;3.72;3.00;;;19.80;99.90;;;;;;4973649;28;20062;-73
2021/06/19 03:12:02;;;;;;;4.15;3.80;;;19.90;99.90;;;;;;4973653;28;20483;-72
2021/06/19 03:14:28;;;;;;;4.75;3.28;;;20.00;99.90;;;;;;4974018;28;20019;-72
2021/06/19 03:16:55;;;;;;;4.03;3.65;;;20.00;99.90;;;;;;4972986;28;20031;-72
2021/06/19 03:19:20;;;;;;;3.88;3.58;;;20.10;99.90;;;;;;4974376;28;20019;-73
2021/06/19 03:21:46;;;;;;;3.80;3.50;;;20.10;99.90;;;;;;4973632;28;20080;-72
2021/06/19 03:24:11;;;;;;;4.57;3.67;;;20.20;99.90;;;;;;4973078;28;20188;-73
2021/06/19 03:26:37;;;;;;;4.13;3.72;;;20.20;99.90;;;;;;4973679;28;20034;-72
2021/06/19 03:29:05;;;;;;;3.70;3.40;;;20.20;99.90;;;;;;4973552;28;20031;-74
2021/06/19 03:31:33;;;;;;;3.97;3.67;;;20.30;99.90;;;;;;4973229;28;20035;-77
2021/06/19 03:33:59;;;;;;;4.32;3.92;;;20.30;99.90;;;;;;4973416;28;20027;-75
2021/06/19 03:36:25;;;;;;;6.15;4.43;;;20.30;99.90;;;;;;4973781;28;20467;-78
2021/06/19 03:38:50;;;;;;;4.78;3.92;;;20.40;99.90;;;;;;4972293;28;20041;-76
2021/06/19 03:41:16;;;;;;;3.83;3.53;;;20.40;99.90;;;;;;4955901;28;20027;-73
2021/06/19 03:43:42;;;;;;;4.03;3.38;;;20.50;99.90;;;;;;4973662;28;20031;-74
2021/06/19 03:46:07;;;;;;;5.50;3.63;;;20.50;99.90;;;;;;4955334;28;20058;-74
2021/06/19 03:48:33;;;;;;;4.30;3.90;;;20.50;99.90;;;;;;4956238;28;20109;-73
2021/06/19 03:50:58;;;;;;;6.57;4.00;;;20.50;99.90;;;;;;4971937;28;20467;-74
2021/06/19 03:53:24;;;;;;;4.97;4.50;;;20.50;99.90;;;;;;4973637;28;20031;-77
2021/06/19 03:55:49;;;;;;;4.00;3.63;;;20.50;99.90;;;;;;4972997;28;20055;-74
2021/06/19 03:58:17;;;;;;;5.63;5.00;;;20.50;99.90;;;;;;4955781;28;20782;-75
2021/06/19 04:00:42;;;;;;;9.98;5.82;;;20.60;99.90;;;;;;4973276;28;20495;-74
2021/06/19 04:03:08;;;;;;;5.63;4.63;;;20.60;99.90;;;;;;4955437;28;20031;-76
2021/06/19 04:05:33;;;;;;;5.60;4.93;;;20.60;99.90;;;;;;4972873;28;20022;-78
2021/06/19 04:07:59;;;;;;;6.57;5.88;;;20.70;99.90;;;;;;4972857;28;20054;-75
2021/06/19 04:10:25;;;;;;;5.60;4.90;;;20.70;99.90;;;;;;4973576;28;20018;-76
2021/06/19 04:12:51;;;;;;;7.55;5.78;;;20.80;99.90;;;;;;4971882;28;20043;-73
2021/06/19 04:15:17;;;;;;;6.90;6.30;;;20.80;99.90;;;;;;4973215;28;20031;-73
2021/06/19 04:17:43;;;;;;;6.90;5.93;;;20.80;99.90;;;;;;4973122;28;20435;-74
2021/06/19 04:20:11;;;;;;;5.90;5.40;;;20.80;99.90;;;;;;4954691;28;20023;-74
2021/06/19 04:22:37;;;;;;;7.03;6.32;;;20.80;99.90;;;;;;4973023;28;20364;-72
2021/06/19 04:25:05;;;;;;;6.07;5.63;;;20.90;99.90;;;;;;4972545;28;20051;-73
2021/06/19 04:27:40;;;;;;;7.05;6.40;;;20.90;99.90;;;;;;4972559;28;20023;-73
2021/06/19 04:30:09;;;;;;;6.85;6.25;;;21.00;99.90;;;;;;4955528;28;20025;-73
2021/06/19 04:32:35;;;;;;;6.60;5.88;;;21.00;99.90;;;;;;4973071;28;20035;-73
2021/06/19 04:35:01;;;;;;;5.80;5.30;;;21.00;99.90;;;;;;4954741;28;20022;-73
2021/06/19 04:37:27;;;;;;;7.10;5.43;;;21.00;99.90;;;;;;4955718;28;20027;-73
2021/06/19 04:39:57;;;;;;;5.75;5.18;;;21.00;99.90;;;;;;4972342;28;20035;-73
2021/06/19 04:42:25;;;;;;;5.07;4.68;;;21.00;99.90;;;;;;4972399;28;20027;-74
2021/06/19 04:47:16;;;;;;;6.50;4.43;;;21.00;99.90;;;;;;4972104;28;20054;-73
2021/06/19 04:49:42;;;;;;;7.68;4.20;;;21.10;99.90;;;;;;4972793;28;20026;-72
2021/06/19 04:52:08;;;;;;;5.32;3.92;;;21.10;99.90;;;;;;4955849;28;20403;-73
2021/06/19 04:54:37;;;;;;;5.00;4.50;;;21.20;99.90;;;;;;4975968;28;20463;-73
2021/06/19 04:57:06;;;;;;;3.80;3.50;;;21.20;99.90;;;;;;4976401;28;20042;-73
2021/06/19 04:59:34;;;;;;;5.22;3.53;;;21.30;99.90;;;;;;4976652;28;20023;-75
2021/06/19 05:02:00;;;;;;;4.30;3.65;;;21.30;99.90;;;;;;4975634;28;20037;-72
2021/06/19 05:04:26;;;;;;;4.32;3.67;;;21.30;99.90;;;;;;4976886;28;20464;-73
2021/06/19 05:06:51;;;;;;;4.70;3.25;;;21.30;99.90;;;;;;4976366;28;20031;-73
2021/06/19 05:09:17;;;;;;;3.78;3.40;;;21.20;99.90;;;;;;4958421;28;20022;-73
2021/06/19 05:11:43;;;;;;;4.90;4.10;;;21.30;99.90;;;;;;4976402;28;20038;-73
2021/06/19 05:14:08;;;;;;;4.57;4.10;;;21.20;99.90;;;;;;4976263;28;20015;-73
2021/06/19 05:16:34;;;;;;;4.63;4.22;;;21.30;99.90;;;;;;4975700;28;20081;-73
2021/06/19 05:18:59;;;;;;;4.13;3.72;;;21.40;99.90;;;;;;4975764;28;20034;-73
2021/06/19 05:21:25;;;;;;;4.43;4.03;;;21.40;99.90;;;;;;4959267;28;20109;-77
2021/06/19 05:23:50;;;;;;;5.43;3.97;;;21.50;99.90;;;;;;4974938;28;20508;-74
2021/06/19 05:26:16;;;;;;;5.45;3.70;;;21.50;99.90;;;;;;4976505;28;20023;-74
2021/06/19 05:28:41;;;;;;;4.43;4.03;;;21.60;99.90;;;;;;4976046;28;20029;-73
2021/06/19 05:31:07;;;;;;;4.88;4.38;;;21.70;99.90;;;;;;4974335;28;20031;-78
2021/06/19 05:33:32;;;;;;;5.28;4.78;;;21.80;99.90;;;;;;4958577;28;20533;-73
2021/06/19 05:35:58;;;;;;;4.72;4.32;;;21.70;99.90;;;;;;4975610;28;20030;-74
2021/06/19 05:38:24;;;;;;;6.13;4.75;;;21.60;99.90;;;;;;4957297;28;20109;-82
2021/06/19 05:40:49;;;;;;;4.75;4.28;;;21.50;99.90;;;;;;4972663;28;20052;-74
2021/06/19 05:43:15;;;;;;;5.05;4.45;;;21.60;99.90;;;;;;4949404;28;20057;-77
2021/06/19 05:45:40;;;;;;;4.68;4.03;;;21.70;99.90;;;;;;4963825;28;20066;-76
2021/06/19 05:48:06;;;;;;;5.13;4.63;;;21.90;99.90;;;;;;4942163;29;20429;-75
2021/06/19 05:50:32;;;;;;;4.93;4.50;;;22.10;99.90;;;;;;4958642;28;20149;-74
2021/06/19 05:52:57;;;;;;;4.70;4.30;;;22.30;99.90;;;;;;4948848;28;20546;-76
2021/06/19 05:55:23;;;;;;;5.00;4.60;;;22.40;99.90;;;;;;4967697;28;20118;-79
2021/06/19 05:57:49;;;;;;;5.80;5.28;;;22.40;99.90;;;;;;4954001;29;20683;-75
2021/06/19 06:00:15;;;;;;;4.85;4.45;;;22.30;99.90;;;;;;4974099;28;20019;-76
2021/06/19 06:02:42;;;;;;;5.40;4.95;;;22.10;99.90;;;;;;4975385;28;20030;-74
2021/06/19 06:05:09;;;;;;;5.20;4.80;;;22.00;99.90;;;;;;4973647;28;20443;-75
2021/06/19 06:07:34;;;;;;;7.05;6.25;;;21.90;99.90;;;;;;4974803;28;20058;-75
2021/06/19 06:10:00;;;;;;;11.70;9.45;;;21.80;99.90;;;;;;4956808;28;20487;-73
2021/06/19 06:12:25;;;;;;;11.65;10.45;;;21.70;99.90;;;;;;4963359;28;20041;-78
2021/06/19 06:14:51;;;;;;;14.38;12.85;;;21.60;99.90;;;;;;4974617;28;20395;-73
2021/06/19 06:17:16;;;;;;;14.98;13.50;;;21.50;99.90;;;;;;4975335;28;20027;-75
2021/06/19 06:19:43;;;;;;;15.77;12.93;;;21.50;99.90;;;;;;4956824;28;20027;-73
2021/06/19 06:22:08;;;;;;;15.27;13.57;;;21.40;99.90;;;;;;4953421;28;20019;-77
2021/06/19 06:24:34;;;;;;;13.73;11.88;;;21.40;99.90;;;;;;4947982;29;20047;-78
2021/06/19 06:27:00;;;;;;;15.90;12.88;;;21.40;99.90;;;;;;4950976;28;20039;-72
2021/06/19 06:29:26;;;;;;;14.75;12.80;;;21.60;99.90;;;;;;4974446;28;20147;-73
2021/06/19 06:31:52;;;;;;;13.13;11.77;;;21.70;99.90;;;;;;4955285;29;20043;-77
2021/06/19 06:34:19;;;;;;;16.77;14.90;;;21.80;99.90;;;;;;4955131;29;20053;-73
2021/06/19 06:36:45;;;;;;;19.63;17.70;;;21.80;99.90;;;;;;4955213;29;20057;-73
2021/06/19 06:39:10;;;;;;;17.80;16.00;;;21.90;99.90;;;;;;4955276;29;20475;-72
2021/06/19 06:41:36;;;;;;;20.20;17.55;;;21.90;99.90;;;;;;4960604;28;20383;-73
2021/06/19 06:44:02;;;;;;;20.83;17.60;;;22.10;99.90;;;;;;4955012;29;20023;-72
2021/06/19 06:46:28;;;;;;;22.70;17.92;;;22.10;99.90;;;;;;4973028;28;20084;-73
2021/06/19 06:48:54;;;;;;;19.50;15.98;;;22.00;99.90;;;;;;4973476;28;20022;-73
2021/06/19 06:51:19;;;;;;;22.38;17.35;;;22.10;99.90;;;;;;4974504;28;20039;-76
2021/06/19 06:53:45;;;;;;;18.90;15.68;;;22.30;99.90;;;;;;4968979;28;20507;-73
2021/06/19 06:56:10;;;;;;;17.30;15.07;;;22.40;99.90;;;;;;4971637;28;20109;-73
2021/06/19 06:58:36;;;;;;;20.48;14.93;;;22.30;99.90;;;;;;4938745;29;20031;-73
2021/06/19 07:01:02;;;;;;;19.50;15.43;;;22.10;99.90;;;;;;4959163;28;20131;-73
2021/06/19 07:03:28;;;;;;;16.80;14.75;;;22.00;99.90;;;;;;4974287;28;20023;-74
2021/06/19 07:05:54;;;;;;;15.63;13.68;;;22.00;99.90;;;;;;4956656;28;20023;-72
2021/06/19 07:08:19;;;;;;;17.33;14.02;;;22.30;99.90;;;;;;4973370;28;20240;-77
2021/06/19 07:10:45;;;;;;;18.92;13.02;;;22.50;99.90;;;;;;4972309;28;20015;-78
2021/06/19 07:13:11;;;;;;;15.40;12.75;;;22.70;99.90;;;;;;4974167;28;20035;-72
2021/06/19 07:15:37;;;;;;;13.15;11.70;;;22.80;99.90;;;;;;4965363;28;20031;-70
2021/06/19 07:18:03;;;;;;;12.90;9.88;;;22.90;99.90;;;;;;4971218;28;20030;-76
2021/06/19 07:20:29;;;;;;;12.30;10.20;;;23.10;99.90;;;;;;4973281;28;20022;-74
2021/06/19 07:22:56;;;;;;;12.25;9.55;;;23.30;99.90;;;;;;4961037;28;20046;-80
2021/06/19 07:25:21;;;;;;;12.32;10.07;;;23.40;99.90;;;;;;4937533;29;20054;-74
2021/06/19 07:27:58;;;;;;;11.07;9.25;;;23.50;99.90;;;;;;4954596;29;20034;-74
2021/06/19 07:30:26;;;;;;;12.40;10.25;;;23.50;99.90;;;;;;4961346;28;20037;-78
2021/06/19 07:32:55;;;;;;;11.43;10.10;;;23.60;99.90;;;;;;4955697;28;20049;-79
2021/06/19 07:35:21;;;;;;;12.90;9.95;;;23.60;99.90;;;;;;4959097;28;20016;-77
2021/06/19 07:37:47;;;;;;;11.32;10.10;;;23.60;99.90;;;;;;4936777;29;20034;-74
2021/06/19 07:40:13;;;;;;;11.10;9.90;;;23.60;99.90;;;;;;4947135;28;20030;-74
2021/06/19 07:42:39;;;;;;;10.13;9.23;;;23.80;99.90;;;;;;4973038;28;20034;-77
2021/06/19 07:45:07;;;;;;;11.38;10.13;;;24.00;99.90;;;;;;4972809;28;20118;-74
2021/06/19 07:47:33;;;;;;;12.20;10.50;;;24.00;99.90;;;;;;4971229;28;20074;-73
2021/06/19 07:49:58;;;;;;;10.20;9.23;;;23.90;99.70;;;;;;4972843;28;20019;-73
2021/06/19 07:52:24;;;;;;;10.60;9.50;;;23.70;99.90;;;;;;4955509;28;20427;-73
2021/06/19 07:54:50;;;;;;;12.23;10.93;;;23.70;99.90;;;;;;4952327;29;20563;-73
2021/06/19 07:57:15;;;;;;;12.35;10.30;;;23.60;99.90;;;;;;4968177;28;20034;-80
2021/06/19 07:59:41;;;;;;;14.32;11.02;;;23.40;99.90;;;;;;4991589;28;20371;-73
2021/06/19 08:02:07;;;;;;;13.52;12.10;;;23.10;99.90;;;;;;4991354;28;20076;-73
2021/06/19 08:04:36;;;;;;;12.50;11.00;;;22.90;99.90;;;;;;4992103;28;20018;-73
2021/06/19 08:07:03;;;;;;;13.90;11.50;;;22.70;99.90;;;;;;4973042;28;20114;-79
2021/06/19 08:09:29;;;;;;;13.68;11.75;;;22.60;99.90;;;;;;4956187;28;20031;-77
2021/06/19 08:11:54;;;;;;;15.25;13.02;;;22.60;99.90;;;;;;4955408;28;20058;-90
2021/06/19 08:14:21;;;;;;;15.25;12.48;;;22.70;99.90;;;;;;4972415;28;20033;-80
2021/06/19 08:16:51;;;;;;;15.48;12.55;;;22.80;99.90;;;;;;4955275;28;20480;-74
2021/06/19 08:19:17;;;;;;;16.75;12.77;;;23.10;99.90;;;;;;4955613;28;20015;-86
2021/06/19 08:21:42;;;;;;;15.95;14.15;;;23.30;99.90;;;;;;4973335;28;20034;-73
2021/06/19 08:24:09;;;;;;;16.27;13.68;;;23.50;99.90;;;;;;4972621;28;20043;-76
2021/06/19 08:26:36;;;;;;;17.33;14.40;;;23.60;99.90;;;;;;4955083;28;20526;-73
2021/06/19 08:29:06;;;;;;;17.75;14.40;;;23.80;99.90;;;;;;4955556;28;20030;-74
2021/06/19 08:31:37;;;;;;;16.65;13.82;;;24.10;99.90;;;;;;4955874;28;20026;-91
2021/06/19 08:34:03;;;;;;;13.88;12.40;;;24.40;99.40;;;;;;4972338;28;20023;-76
2021/06/19 08:36:29;;;;;;;17.77;14.95;;;24.60;99.40;;;;;;4973640;28;20027;-74
2021/06/19 08:38:55;;;;;;;21.60;17.63;;;24.70;98.80;;;;;;4972274;28;20023;-73
2021/06/19 08:41:20;;;;;;;20.17;17.88;;;24.70;98.20;;;;;;4954962;28;20069;-73
2021/06/19 08:43:47;;;;;;;19.80;17.13;;;24.70;98.20;;;;;;4953038;28;20099;-73
2021/06/19 08:46:14;;;;;;;17.85;15.98;;;24.70;98.30;;;;;;4955457;28;20126;-74
2021/06/19 08:48:40;;;;;;;20.13;16.60;;;24.90;97.90;;;;;;4969805;28;20117;-73
2021/06/19 08:51:06;;;;;;;18.42;16.13;;;24.70;97.90;;;;;;4954669;28;20063;-73
2021/06/19 08:53:33;;;;;;;18.85;15.60;;;24.60;97.90;;;;;;4954440;28;20121;-75
2021/06/19 08:55:59;;;;;;;15.93;13.20;;;24.50;98.10;;;;;;4954700;28;20023;-76
2021/06/19 08:58:24;;;;;;;14.95;13.38;;;24.60;98.30;;;;;;4956033;28;20038;-73
2021/06/19 09:00:50;;;;;;;13.48;12.15;;;24.70;97.90;;;;;;4971886;28;20595;-78
2021/06/19 09:03:25;;;;;;;15.73;14.13;;;24.80;98.40;;;;;;4956065;28;20035;-73
2021/06/19 09:05:52;;;;;;;14.13;12.63;;;24.80;98.20;;;;;;4954688;28;20023;-75
2021/06/19 09:08:19;;;;;;;13.00;11.55;;;25.00;98.00;;;;;;4952180;28;20023;-76
2021/06/19 09:10:45;;;;;;;13.45;11.88;;;25.00;97.80;;;;;;4954044;28;20479;-80
2021/06/19 09:13:13;;;;;;;13.50;12.27;;;25.10;97.30;;;;;;4971648;28;20051;-75
2021/06/19 09:15:50;;;;;;;12.43;11.23;;;24.90;97.10;;;;;;4954290;28;20029;-75
2021/06/19 09:18:27;;;;;;;12.95;11.68;;;24.90;97.50;;;;;;4971810;28;20037;-80
2021/06/19 09:20:57;;;;;;;12.98;11.77;;;25.10;96.90;;;;;;4970148;28;20108;-74
2021/06/19 09:23:34;;;;;;;11.88;10.65;;;25.30;96.70;;;;;;4954613;28;20550;-75
2021/06/19 09:26:15;;;;;;;11.75;10.57;;;25.30;96.80;;;;;;4953849;28;20391;-72
2021/06/19 09:29:10;;;;;;;10.45;9.35;;;25.50;96.50;;;;;;4971584;28;20023;-78
2021/06/19 09:31:51;;;;;;;11.60;10.38;;;25.60;95.90;;;;;;4972284;28;20035;-73
2021/06/19 09:34:22;;;;;;;13.23;11.20;;;25.50;95.70;;;;;;4955283;28;20015;-77
2021/06/19 09:36:49;;;;;;;;;;;25.40;96.10;;;;;;4953880;28;20510;-79
2021/06/19 09:39:18;;;;;;;12.75;11.10;;;25.30;95.90;;;;;;4972497;28;19952;-72
2021/06/19 09:41:47;;;;;;;12.60;11.32;;;25.10;96.10;;;;;;4958197;28;20122;-77
2021/06/19 09:44:12;;;;;;;12.27;10.65;;;25.00;96.20;;;;;;4957516;28;20034;-72
2021/06/19 09:46:38;;;;;;;10.45;9.40;;;24.90;96.70;;;;;;4958384;28;20371;-78
2021/06/19 09:49:15;;;;;;;14.90;12.00;;;24.90;97.20;;;;;;4975236;28;20538;-72
2021/06/19 09:51:46;;;;;;;12.38;10.90;;;25.10;96.90;;;;;;4974741;28;20107;-77
2021/06/19 09:54:11;;;;;;;12.63;10.98;;;25.50;96.80;;;;;;4975662;28;20042;-79
2021/06/19 09:56:44;;;;;;;12.80;11.02;;;25.70;96.00;;;;;;4957650;28;20019;-78
2021/06/19 09:59:24;;;;;;;11.65;10.32;;;25.90;95.70;;;;;;4956725;28;20026;-75
2021/06/19 10:01:50;;;;;;;14.18;12.70;;;25.90;95.70;;;;;;4957655;28;20026;-76
2021/06/19 10:04:20;;;;;;;16.83;12.77;;;26.10;95.20;;;;;;4957282;28;20518;-75
2021/06/19 10:06:46;;;;;;;14.82;12.57;;;26.20;94.90;;;;;;4957337;28;20488;-74
2021/06/19 10:09:14;;;;;;;16.17;13.38;;;26.10;94.70;;;;;;4975628;28;20471;-77
2021/06/19 10:11:40;;;;;;;16.65;14.35;;;25.60;95.20;;;;;;4974353;28;20035;-73
2021/06/19 10:14:09;;;;;;;14.38;12.80;;;25.20;95.90;;;;;;4974384;28;20382;-73
2021/06/19 10:16:40;;;;;;;12.85;11.45;;;24.80;96.10;;;;;;4974194;28;20026;-73
2021/06/19 10:19:07;;;;;;;11.68;10.52;;;24.50;97.00;;;;;;4974192;28;20023;-73
2021/06/19 10:21:33;;;;;;;11.70;10.55;;;24.40;97.50;;;;;;4975078;28;20018;-73
2021/06/19 10:23:59;;;;;;;12.75;11.43;;;24.40;97.60;;;;;;4957008;28;20039;-74
2021/06/19 10:26:25;;;;;;;15.00;12.90;;;24.40;97.20;;;;;;4974643;28;20027;-72
2021/06/19 10:28:56;;;;;;;13.45;12.15;;;24.20;97.10;;;;;;4956991;28;20029;-71
2021/06/19 10:31:22;;;;;;;14.20;11.95;;;24.00;97.30;;;;;;4974922;28;20053;-72
2021/06/19 10:33:48;;;;;;;14.32;12.10;;;23.90;97.70;;;;;;4973525;28;20031;-72
2021/06/19 10:36:17;;;;;;;12.35;11.15;;;23.90;98.10;;;;;;4974242;28;20372;-72
2021/06/19 10:38:55;;;;;;;12.25;11.05;;;23.80;98.40;;;;;;4957176;28;20034;-73
2021/06/19 10:41:44;;;;;;;14.30;12.90;;;23.90;98.30;;;;;;4957694;28;20407;-75
2021/06/19 10:44:11;;;;;;;13.55;10.90;;;24.00;97.90;;;;;;4974441;28;20424;-73
2021/06/19 10:46:38;;;;;;;11.45;10.30;;;24.10;97.70;;;;;;4972995;28;20030;-74
2021/06/19 10:49:24;;;;;;;15.98;12.35;;;24.10;97.60;;;;;;4957152;28;20085;-83
2021/06/19 10:52:10;;;;;;;13.55;12.30;;;24.20;97.80;;;;;;4957078;28;20041;-74
2021/06/19 10:54:35;;;;;;;13.48;12.20;;;24.40;97.20;;;;;;4973497;28;20022;-73
2021/06/19 10:57:01;;;;;;;13.18;11.80;;;24.60;96.70;;;;;;4956604;28;20807;-74
2021/06/19 10:59:32;;;;;;;12.02;10.93;;;24.90;96.50;;;;;;4973919;28;20027;-79
2021/06/19 11:01:59;;;;;;;11.00;9.98;;;25.20;96.30;;;;;;4973314;28;20073;-75
2021/06/19 11:04:40;;;;;;;13.20;11.90;;;25.60;95.90;;;;;;4974207;28;20019;-77
2021/06/19 11:07:30;;;;;;;14.68;12.20;;;25.80;95.30;;;;;;4955491;28;20027;-76
2021/06/19 11:09:55;;;;;;;12.95;11.65;;;25.70;95.20;;;;;;4971455;28;20062;-82
2021/06/19 11:12:28;;;;;;;12.48;11.30;;;25.50;95.40;;;;;;4972766;28;20077;-71
2021/06/19 11:15:04;;;;;;;12.77;11.52;;;25.40;95.20;;;;;;4972933;28;20495;-74
2021/06/19 11:17:33;;;;;;;13.27;11.98;;;25.40;95.00;;;;;;4973990;28;20027;-75
2021/06/19 11:20:23;;;;;;;13.57;12.32;;;25.70;95.30;;;;;;4972779;28;20560;-79
2021/06/19 11:23:03;;;;;;;13.73;12.32;;;26.00;94.90;;;;;;4953391;28;20369;-76
2021/06/19 11:25:29;;;;;;;14.05;12.75;;;26.30;94.00;;;;;;4973286;28;20047;-77
2021/06/19 11:28:00;;;;;;;15.13;13.73;;;26.50;94.00;;;;;;4955147;28;20487;-74
2021/06/19 11:30:35;;;;;;;14.63;13.23;;;26.80;93.20;;;;;;4955021;28;20065;-75
2021/06/19 11:33:15;;;;;;;14.70;13.20;;;27.00;92.60;;;;;;4973206;28;20055;-76
2021/06/19 11:35:45;;;;;;;13.40;12.20;;;27.00;92.90;;;;;;4972165;28;20050;-73
2021/06/19 11:38:11;;;;;;;15.55;14.05;;;27.10;93.10;;;;;;4956031;28;20054;-74
2021/06/19 11:40:37;;;;;;;15.23;13.82;;;27.20;92.10;;;;;;4955501;28;20053;-75
2021/06/19 11:43:05;;;;;;;13.95;12.60;;;27.10;92.10;;;;;;4972388;28;20027;-74
2021/06/19 11:45:31;;;;;;;14.65;13.18;;;27.00;92.70;;;;;;4955862;28;20027;-74
2021/06/19 11:48:01;;;;;;;16.08;14.43;;;27.10;92.50;;;;;;4955379;28;20037;-74
2021/06/19 11:50:30;;;;;;;15.82;14.25;;;27.30;92.20;;;;;;4971450;28;20376;-78
2021/06/19 11:52:56;;;;;;;15.95;14.43;;;27.60;91.60;;;;;;4971685;28;20039;-76
2021/06/19 11:55:22;;;;;;;16.08;14.50;;;27.50;91.20;;;;;;4972088;28;20451;-75
2021/06/19 11:57:57;;;;;;;18.08;16.38;;;27.60;91.00;;;;;;4970632;28;20038;-76
2021/06/19 12:00:23;;;;;;;18.08;16.27;;;27.50;90.60;;;;;;4956102;28;20384;-75
2021/06/19 12:02:53;;;;;;;16.48;14.52;;;27.40;90.70;;;;;;4959127;28;20015;-74
2021/06/19 12:05:19;;;;;;;15.57;14.07;;;27.40;91.40;;;;;;4971738;28;20022;-74
2021/06/19 12:07:45;;;;;;;15.30;13.80;;;27.30;91.40;;;;;;4954797;28;20029;-74
2021/06/19 12:10:27;;;;;;;18.30;16.60;;;27.30;91.60;;;;;;4972895;28;20031;-76
2021/06/19 12:13:04;;;;;;;17.48;15.88;;;27.20;91.10;;;;;;4952034;28;20035;-73
2021/06/19 12:15:30;;;;;;;15.75;14.30;;;26.80;90.90;;;;;;4957024;28;20023;-73
2021/06/19 12:17:56;;;;;;;18.13;16.35;;;26.40;91.80;;;;;;4970591;28;20062;-73
2021/06/19 12:20:24;;;;;;;16.25;14.85;;;26.40;92.20;;;;;;4972762;28;20069;-73
2021/06/19 12:22:50;;;;;;;18.23;16.52;;;26.50;92.00;;;;;;4954187;28;20503;-72
2021/06/19 12:25:34;;;;;;;16.77;15.27;;;26.70;91.40;;;;;;4971675;28;20042;-73
2021/06/19 12:28:02;;;;;;;16.35;14.93;;;26.60;91.50;;;;;;4954980;28;20061;-73
2021/06/19 12:30:28;;;;;;;15.75;14.27;;;26.40;91.80;;;;;;4954657;28;20072;-75
2021/06/19 12:32:54;;;;;;;15.68;14.27;;;26.40;92.20;;;;;;4971103;28;20038;-73
2021/06/19 12:35:21;;;;;;;15.70;14.20;;;26.30;92.10;;;;;;4972901;28;20027;-74
2021/06/19 12:37:58;;;;;;;16.73;15.15;;;26.40;92.40;;;;;;4954774;28;20117;-76
2021/06/19 12:40:34;;;;;;;15.52;14.13;;;26.40;91.70;;;;;;4954097;28;20057;-77